createdAt,value
2018-09-08T00:01:21.867Z,11.73
2018-09-08T00:03:50.037Z,12.43
2018-09-08T00:06:23.525Z,12.67
2018-09-08T00:08:51.721Z,10.40
2018-09-08T00:11:19.873Z,12.43
2018-09-08T00:13:48.050Z,12.83
2018-09-08T00:16:21.709Z,11.57
2018-09-08T00:18:55.145Z,10.27
2018-09-08T00:21:28.625Z,8.78
2018-09-08T00:24:02.006Z,9.80
2018-09-08T00:26:33.212Z,9.25
2018-09-08T00:29:06.359Z,8.15
2018-09-08T00:31:34.504Z,7.00
2018-09-08T00:34:02.676Z,8.98
2018-09-08T00:36:30.830Z,6.30
2018-09-08T00:38:58.986Z,7.83
2018-09-08T00:41:27.147Z,5.90
2018-09-08T00:43:55.304Z,6.38
2018-09-08T00:46:23.496Z,5.35
2018-09-08T00:48:51.655Z,6.33
2018-09-08T00:51:19.822Z,5.47
2018-09-08T00:53:48.000Z,5.03
2018-09-08T00:56:16.148Z,5.30
2018-09-08T00:58:49.548Z,4.60
2018-09-08T01:01:17.704Z,5.27
2018-09-08T01:03:45.887Z,5.90
2018-09-08T01:06:14.060Z,4.07
2018-09-08T01:08:42.204Z,4.77
2018-09-08T01:11:10.345Z,5.00
2018-09-08T01:13:38.456Z,4.37
2018-09-08T01:16:06.799Z,4.00
2018-09-08T01:18:36.808Z,5.70
2018-09-08T01:21:06.541Z,4.30
2018-09-08T01:23:34.679Z,7.10
2018-09-08T01:26:03.213Z,4.40
2018-09-08T01:28:31.353Z,3.73
2018-09-08T01:30:59.474Z,3.10
2018-09-08T01:33:27.797Z,4.43
2018-09-08T01:35:56.644Z,3.20
2018-09-08T01:38:24.950Z,3.30
2018-09-08T01:40:53.091Z,3.77
2018-09-08T01:43:21.220Z,4.53
2018-09-08T01:45:49.493Z,5.03
2018-09-08T01:48:17.650Z,3.73
2018-09-08T01:50:45.785Z,3.30
2018-09-08T01:53:13.918Z,3.30
2018-09-08T01:55:42.093Z,3.58
2018-09-08T01:58:10.226Z,4.77
2018-09-08T02:00:38.378Z,4.10
2018-09-08T02:03:12.908Z,4.00
2018-09-08T02:05:41.055Z,3.60
2018-09-08T02:08:09.205Z,3.75
2018-09-08T02:10:37.335Z,3.55
2018-09-08T02:13:05.489Z,3.40
2018-09-08T02:15:33.642Z,3.50
2018-09-08T02:18:01.797Z,3.50
2018-09-08T02:20:29.942Z,3.53
2018-09-08T02:22:58.078Z,4.80
2018-09-08T02:25:26.243Z,3.73
2018-09-08T02:27:54.374Z,3.43
2018-09-08T02:30:22.510Z,4.50
2018-09-08T02:32:50.745Z,3.60
2018-09-08T02:35:18.916Z,3.40
2018-09-08T02:37:47.000Z,2.87
2018-09-08T02:40:15.149Z,3.70
2018-09-08T02:42:43.257Z,4.93
2018-09-08T02:45:11.429Z,4.70
2018-09-08T02:47:39.574Z,6.20
2018-09-08T02:50:19.114Z,3.60
2018-09-08T02:52:46.233Z,3.93
2018-09-08T02:55:13.356Z,4.00
2018-09-08T02:57:40.477Z,3.20
2018-09-08T03:00:07.584Z,3.13
2018-09-08T03:02:34.714Z,3.53
2018-09-08T03:05:01.841Z,4.37
2018-09-08T03:07:28.991Z,3.43
2018-09-08T03:09:56.136Z,4.70
2018-09-08T03:12:23.269Z,3.40
2018-09-08T03:14:50.414Z,4.30
2018-09-08T03:17:17.548Z,5.83
2018-09-08T03:19:44.679Z,4.07
2018-09-08T03:22:11.807Z,3.63
2018-09-08T03:24:38.925Z,3.70
2018-09-08T03:27:06.070Z,3.70
2018-09-08T03:29:33.180Z,3.60
2018-09-08T03:32:00.287Z,4.42
2018-09-08T03:34:27.431Z,3.90
2018-09-08T03:36:54.557Z,4.07
2018-09-08T03:39:21.702Z,4.93
2018-09-08T03:41:48.849Z,3.60
2018-09-08T03:44:16.026Z,4.07
2018-09-08T03:46:43.180Z,5.70
2018-09-08T03:49:10.297Z,4.43
2018-09-08T03:51:37.521Z,3.80
2018-09-08T03:54:04.643Z,9.53
2018-09-08T03:56:31.760Z,4.43
2018-09-08T03:58:58.974Z,5.30
2018-09-08T04:01:26.062Z,4.20
2018-09-08T04:03:54.573Z,4.27
2018-09-08T04:06:22.713Z,5.40
2018-09-08T04:08:50.869Z,4.30
2018-09-08T04:11:19.052Z,4.40
2018-09-08T04:13:47.149Z,5.42
2018-09-08T04:16:15.443Z,7.03
2018-09-08T04:18:43.601Z,5.17
2018-09-08T04:21:11.780Z,6.28
2018-09-08T04:23:39.962Z,5.20
2018-09-08T04:26:08.130Z,4.70
2018-09-08T04:28:36.289Z,5.00
2018-09-08T04:31:04.982Z,4.42
2018-09-08T04:33:33.593Z,7.20
2018-09-08T04:36:02.388Z,8.63
2018-09-08T04:38:30.602Z,4.50
2018-09-08T04:40:58.793Z,5.40
2018-09-08T04:43:26.888Z,9.03
2018-09-08T04:45:55.137Z,4.60
2018-09-08T04:48:23.252Z,6.23
2018-09-08T04:50:51.396Z,4.90
2018-09-08T04:53:19.559Z,5.37
2018-09-08T04:55:47.716Z,5.40
2018-09-08T04:58:15.846Z,6.10
2018-09-08T05:00:43.991Z,4.73
2018-09-08T05:03:12.131Z,5.37
2018-09-08T05:05:40.265Z,4.90
2018-09-08T05:08:08.424Z,5.70
2018-09-08T05:10:36.577Z,5.13
2018-09-08T05:13:04.726Z,5.93
2018-09-08T05:15:32.858Z,8.13
2018-09-08T05:18:01.011Z,5.50
2018-09-08T05:20:29.141Z,6.23
2018-09-08T05:22:57.317Z,6.67
2018-09-08T05:25:25.489Z,6.07
2018-09-08T05:27:53.647Z,5.53
2018-09-08T05:30:21.789Z,5.63
2018-09-08T05:32:49.904Z,6.83
2018-09-08T05:35:18.081Z,5.70
2018-09-08T05:37:46.265Z,5.60
2018-09-08T05:40:14.405Z,6.23
2018-09-08T05:42:42.545Z,5.63
2018-09-08T05:45:10.768Z,6.60
2018-09-08T05:47:38.895Z,6.50
2018-09-08T05:50:07.054Z,6.23
2018-09-08T05:52:35.221Z,5.93
2018-09-08T05:55:03.360Z,6.03
2018-09-08T05:57:31.544Z,6.13
2018-09-08T05:59:59.702Z,6.17
2018-09-08T06:02:27.836Z,6.40
2018-09-08T06:04:55.967Z,8.57
2018-09-08T06:07:24.121Z,5.73
2018-09-08T06:09:52.273Z,7.57
2018-09-08T06:12:21.324Z,6.58
2018-09-08T06:14:49.458Z,6.10
2018-09-08T06:17:17.635Z,6.47
2018-09-08T06:19:45.802Z,6.87
2018-09-08T06:22:13.934Z,6.40
2018-09-08T06:24:42.059Z,6.10
2018-09-08T06:27:10.216Z,7.37
2018-09-08T06:29:38.369Z,6.37
2018-09-08T06:32:06.549Z,6.00
2018-09-08T06:34:34.700Z,6.80
2018-09-08T06:37:02.837Z,7.37
2018-09-08T06:39:30.985Z,7.67
2018-09-08T06:41:59.146Z,7.40
2018-09-08T06:44:27.313Z,8.20
2018-09-08T06:46:55.459Z,7.50
2018-09-08T06:49:23.697Z,7.40
2018-09-08T06:51:52.104Z,7.00
2018-09-08T06:54:20.261Z,9.53
2018-09-08T06:56:48.445Z,7.23
2018-09-08T06:59:16.605Z,8.93
2018-09-08T07:01:44.745Z,8.63
2018-09-08T07:04:12.893Z,7.50
2018-09-08T07:06:41.033Z,7.50
2018-09-08T07:09:15.888Z,7.80
2018-09-08T07:11:44.065Z,8.00
2018-09-08T07:14:12.238Z,10.53
2018-09-08T07:16:40.410Z,6.43
2018-09-08T07:19:08.570Z,5.67
2018-09-08T07:21:36.738Z,6.50
2018-09-08T07:24:04.919Z,8.43
2018-09-08T07:26:33.109Z,7.00
2018-09-08T07:29:01.269Z,6.43
2018-09-08T07:31:29.561Z,6.08
2018-09-08T07:33:57.743Z,6.33
2018-09-08T07:36:25.895Z,6.25
2018-09-08T07:38:54.047Z,6.20
2018-09-08T07:41:22.165Z,6.33
2018-09-08T07:43:50.317Z,5.93
2018-09-08T07:46:18.454Z,8.90
2018-09-08T07:48:46.589Z,6.20
2018-09-08T07:51:14.724Z,6.90
2018-09-08T07:53:42.967Z,8.27
2018-09-08T07:56:11.028Z,7.60
2018-09-08T07:58:39.204Z,6.50
2018-09-08T08:01:07.321Z,6.93
2018-09-08T08:03:36.340Z,10.80
2018-09-08T08:06:04.493Z,5.70
2018-09-08T08:08:32.651Z,6.42
2018-09-08T08:11:00.803Z,6.87
2018-09-08T08:13:28.935Z,8.33
2018-09-08T08:15:57.090Z,6.55
2018-09-08T08:18:25.259Z,9.40
2018-09-08T08:20:53.373Z,6.20
2018-09-08T08:23:21.587Z,6.60
2018-09-08T08:25:49.618Z,6.10
2018-09-08T08:28:17.738Z,5.47
2018-09-08T08:30:45.893Z,5.57
2018-09-08T08:33:15.622Z,9.20
2018-09-08T08:35:44.080Z,6.10
2018-09-08T08:38:12.235Z,5.20
2018-09-08T08:40:40.448Z,8.70
2018-09-08T08:43:08.654Z,4.63
2018-09-08T08:45:36.808Z,6.03
2018-09-08T08:48:04.974Z,6.57
2018-09-08T08:50:44.591Z,6.37
2018-09-08T08:53:24.121Z,11.37
2018-09-08T08:55:52.281Z,6.50
2018-09-08T08:58:20.438Z,6.73
2018-09-08T09:00:48.572Z,7.80
2018-09-08T09:03:16.727Z,8.23
2018-09-08T09:05:44.914Z,6.30
2018-09-08T09:08:13.094Z,8.20
2018-09-08T09:10:41.627Z,9.10
2018-09-08T09:13:09.837Z,6.77
2018-09-08T09:15:37.988Z,7.40
2018-09-08T09:18:06.141Z,7.07
2018-09-08T09:20:45.749Z,8.87
2018-09-08T09:23:25.180Z,8.03
2018-09-08T09:25:53.365Z,5.75
2018-09-08T09:28:21.499Z,8.35
2018-09-08T09:30:49.617Z,6.10
2018-09-08T09:33:17.744Z,6.95
2018-09-08T09:35:45.898Z,6.17
2018-09-08T09:38:14.024Z,6.47
2018-09-08T09:40:42.202Z,6.70
2018-09-08T09:43:10.379Z,6.83
2018-09-08T09:45:38.517Z,7.07
2018-09-08T09:48:06.628Z,6.40
2018-09-08T09:50:34.771Z,5.17
2018-09-08T09:53:02.956Z,4.90
2018-09-08T09:55:31.058Z,5.83
2018-09-08T09:57:59.179Z,7.07
2018-09-08T10:00:32.569Z,6.87
2018-09-08T10:03:06.738Z,5.37
2018-09-08T10:05:35.924Z,5.27
2018-09-08T10:08:04.178Z,6.27
2018-09-08T10:10:32.358Z,5.40
2018-09-08T10:13:00.530Z,5.50
2018-09-08T10:15:28.714Z,7.08
2018-09-08T10:17:56.832Z,5.07
2018-09-08T10:20:24.994Z,5.10
2018-09-08T10:22:53.231Z,5.87
2018-09-08T10:25:21.380Z,5.40
2018-09-08T10:27:49.836Z,8.00
2018-09-08T10:30:18.364Z,4.70
2018-09-08T10:32:47.161Z,3.70
2018-09-08T10:35:15.453Z,6.33
2018-09-08T10:37:43.600Z,4.97
2018-09-08T10:40:12.716Z,4.72
2018-09-08T10:42:40.868Z,4.62
2018-09-08T10:45:09.397Z,5.63
2018-09-08T10:47:37.620Z,4.37
2018-09-08T10:50:06.031Z,5.03
2018-09-08T10:52:39.413Z,6.92
2018-09-08T10:55:07.553Z,4.17
2018-09-08T10:57:35.717Z,4.47
2018-09-08T11:00:04.376Z,5.47
2018-09-08T11:02:33.036Z,3.57
2018-09-08T11:05:01.536Z,4.50
2018-09-08T11:07:29.772Z,5.55
2018-09-08T11:09:57.947Z,4.28
2018-09-08T11:12:26.076Z,3.87
2018-09-08T11:14:54.195Z,2.92
2018-09-08T11:17:22.309Z,3.37
2018-09-08T11:19:50.487Z,4.35
2018-09-08T11:22:18.641Z,5.07
2018-09-08T11:24:46.770Z,3.42
2018-09-08T11:27:15.081Z,3.80
2018-09-08T11:29:43.358Z,3.87
2018-09-08T11:32:11.515Z,4.23
2018-09-08T11:34:39.669Z,2.83
2018-09-08T11:37:07.794Z,3.23
2018-09-08T11:39:36.026Z,5.00
2018-09-08T11:42:04.261Z,3.37
2018-09-08T11:44:32.424Z,3.80
2018-09-08T11:47:00.621Z,2.70
2018-09-08T11:49:28.841Z,3.20
2018-09-08T11:51:56.981Z,4.30
2018-09-08T11:54:25.186Z,2.58
2018-09-08T11:56:53.368Z,3.10
2018-09-08T11:59:21.500Z,5.23
2018-09-08T12:01:49.677Z,3.13
2018-09-08T12:04:17.849Z,6.23
2018-09-08T12:06:46.001Z,3.70
2018-09-08T12:09:14.184Z,4.10
2018-09-08T12:11:42.365Z,3.30
2018-09-08T12:14:10.958Z,4.40
2018-09-08T12:16:39.176Z,4.53
2018-09-08T12:19:07.405Z,3.63
2018-09-08T12:21:35.568Z,3.27
2018-09-08T12:24:03.704Z,5.95
2018-09-08T12:26:31.850Z,6.10
2018-09-08T12:29:00.029Z,2.90
2018-09-08T12:31:28.189Z,3.30
2018-09-08T12:33:56.640Z,4.35
2018-09-08T12:36:24.788Z,2.50
2018-09-08T12:38:53.020Z,3.07
2018-09-08T12:41:21.177Z,3.40
2018-09-08T12:43:49.430Z,3.10
2018-09-08T12:46:17.619Z,4.40
2018-09-08T12:48:45.758Z,2.60
2018-09-08T12:51:13.900Z,2.70
2018-09-08T12:53:42.042Z,2.80
2018-09-08T12:56:10.256Z,2.67
2018-09-08T12:58:38.405Z,3.10
2018-09-08T13:01:06.591Z,2.80
2018-09-08T13:03:34.957Z,2.40
2018-09-08T13:06:04.111Z,3.10
2018-09-08T13:08:32.252Z,2.87
2018-09-08T13:11:00.416Z,4.65
2018-09-08T13:13:28.565Z,4.53
2018-09-08T13:15:56.717Z,3.07
2018-09-08T13:18:24.890Z,1.90
2018-09-08T13:20:53.040Z,3.60
2018-09-08T13:23:21.514Z,6.93
2018-09-08T13:25:49.701Z,2.10
2018-09-08T13:28:18.290Z,2.13
2018-09-08T13:30:46.577Z,1.90
2018-09-08T13:33:14.694Z,3.77
2018-09-08T13:35:42.818Z,3.07
2018-09-08T13:38:10.975Z,2.17
2018-09-08T13:40:39.118Z,2.07
2018-09-08T13:43:07.256Z,2.70
2018-09-08T13:45:35.392Z,2.30
2018-09-08T13:48:03.602Z,3.17
2018-09-08T13:50:31.757Z,2.57
2018-09-08T13:52:59.917Z,5.70
2018-09-08T13:55:28.080Z,2.00
2018-09-08T13:57:56.214Z,2.65
2018-09-08T14:00:24.357Z,2.15
2018-09-08T14:02:52.533Z,4.00
2018-09-08T14:05:20.711Z,2.07
2018-09-08T14:07:53.668Z,3.90
2018-09-08T14:10:21.812Z,2.05
2018-09-08T14:12:49.976Z,1.77
2018-09-08T14:15:18.162Z,2.83
2018-09-08T14:17:46.328Z,2.60
2018-09-08T14:20:14.497Z,2.73
2018-09-08T14:22:42.659Z,2.93
2018-09-08T14:25:10.777Z,3.53
2018-09-08T14:27:38.912Z,5.37
2018-09-08T14:30:07.286Z,3.20
2018-09-08T14:32:35.414Z,3.45
2018-09-08T14:35:03.618Z,4.85
2018-09-08T14:37:31.773Z,5.47
2018-09-08T14:39:59.908Z,4.30
2018-09-08T14:42:28.046Z,2.63
2018-09-08T14:44:56.237Z,2.43
2018-09-08T14:47:24.447Z,8.53
2018-09-08T14:49:52.556Z,2.27
2018-09-08T14:52:20.726Z,6.17
2018-09-08T14:54:48.890Z,5.63
2018-09-08T14:57:17.068Z,3.72
2018-09-08T14:59:45.194Z,3.00
2018-09-08T15:02:13.342Z,3.00
2018-09-08T15:04:41.541Z,3.53
2018-09-08T15:07:09.745Z,2.62
2018-09-08T15:09:37.899Z,5.77
2018-09-08T15:12:06.131Z,2.40
2018-09-08T15:14:34.349Z,7.40
2018-09-08T15:17:02.488Z,2.70
2018-09-08T15:19:30.689Z,2.77
2018-09-08T15:21:58.806Z,2.03
2018-09-08T15:24:27.075Z,2.40
2018-09-08T15:26:55.269Z,2.77
2018-09-08T15:29:23.405Z,4.00
2018-09-08T15:31:51.572Z,3.57
2018-09-08T15:34:19.783Z,3.13
2018-09-08T15:36:47.929Z,2.70
2018-09-08T15:39:16.055Z,3.40
2018-09-08T15:41:44.241Z,2.60
2018-09-08T15:44:12.477Z,3.17
2018-09-08T15:46:40.869Z,4.25
2018-09-08T15:49:09.078Z,2.90
2018-09-08T15:51:37.435Z,4.30
2018-09-08T15:54:05.519Z,5.25
2018-09-08T15:56:33.675Z,3.77
2018-09-08T15:59:01.805Z,2.47
2018-09-08T16:01:30.009Z,2.47
2018-09-08T16:03:58.175Z,3.83
2018-09-08T16:06:26.327Z,4.77
2018-09-08T16:08:54.464Z,4.03
2018-09-08T16:11:22.681Z,4.30
2018-09-08T16:13:50.770Z,2.60
2018-09-08T16:16:18.977Z,2.77
2018-09-08T16:18:47.173Z,4.08
2018-09-08T16:21:15.273Z,3.03
2018-09-08T16:23:43.380Z,4.85
2018-09-08T16:26:11.534Z,4.45
2018-09-08T16:28:39.742Z,2.72
2018-09-08T16:31:07.844Z,2.62
2018-09-08T16:33:36.006Z,4.72
2018-09-08T16:36:04.152Z,2.53
2018-09-08T16:38:32.316Z,5.17
2018-09-08T16:41:01.308Z,3.20
2018-09-08T16:43:29.471Z,3.33
2018-09-08T16:45:57.644Z,4.13
2018-09-08T16:48:25.804Z,5.33
2018-09-08T16:50:53.928Z,4.78
2018-09-08T16:53:22.074Z,4.55
2018-09-08T16:55:50.233Z,3.10
2018-09-08T16:58:18.357Z,4.65
2018-09-08T17:00:46.464Z,2.72
2018-09-08T17:03:14.645Z,3.50
2018-09-08T17:05:42.766Z,4.60
2018-09-08T17:08:15.081Z,3.17
2018-09-08T17:10:43.398Z,3.20
2018-09-08T17:13:11.753Z,4.53
2018-09-08T17:15:39.937Z,4.70
2018-09-08T17:18:08.186Z,4.23
2018-09-08T17:20:37.321Z,5.63
2018-09-08T17:23:05.573Z,3.53
2018-09-08T17:25:33.842Z,4.77
2018-09-08T17:28:01.979Z,5.83
2018-09-08T17:30:30.173Z,5.10
2018-09-08T17:32:58.358Z,4.43
2018-09-08T17:35:26.509Z,3.87
2018-09-08T17:37:54.655Z,4.35
2018-09-08T17:40:22.800Z,3.67
2018-09-08T17:42:51.051Z,3.93
2018-09-08T17:45:19.963Z,3.80
2018-09-08T17:47:48.132Z,3.72
2018-09-08T17:50:16.263Z,3.30
2018-09-08T17:52:44.426Z,3.43
2018-09-08T17:55:12.621Z,4.50
2018-09-08T17:57:40.875Z,3.37
2018-09-08T18:00:08.953Z,6.03
2018-09-08T18:02:37.090Z,4.00
2018-09-08T18:05:05.222Z,3.40
2018-09-08T18:07:33.360Z,3.50
2018-09-08T18:10:01.514Z,4.03
2018-09-08T18:12:29.657Z,5.40
2018-09-08T18:14:57.813Z,5.93
2018-09-08T18:17:25.979Z,3.90
2018-09-08T18:19:54.108Z,6.37
2018-09-08T18:22:22.244Z,4.27
2018-09-08T18:24:50.389Z,4.03
2018-09-08T18:27:18.487Z,4.03
2018-09-08T18:29:46.641Z,4.27
2018-09-08T18:32:14.772Z,5.00
2018-09-08T18:34:42.929Z,3.70
2018-09-08T18:37:17.775Z,4.20
2018-09-08T18:39:45.934Z,5.28
2018-09-08T18:42:14.076Z,4.67
2018-09-08T18:44:42.263Z,4.10
2018-09-08T18:47:10.437Z,4.22
2018-09-08T18:49:38.658Z,3.85
2018-09-08T18:52:07.590Z,3.93
2018-09-08T18:54:35.737Z,6.77
2018-09-08T18:57:03.914Z,4.13
2018-09-08T18:59:32.068Z,4.57
2018-09-08T19:02:00.241Z,4.07
2018-09-08T19:04:28.416Z,4.70
2018-09-08T19:06:56.563Z,4.50
2018-09-08T19:09:24.666Z,4.10
2018-09-08T19:11:52.819Z,4.20
2018-09-08T19:14:26.330Z,4.53
2018-09-08T19:16:54.468Z,6.33
2018-09-08T19:19:22.613Z,4.03
2018-09-08T19:21:50.785Z,5.75
2018-09-08T19:24:24.448Z,4.63
2018-09-08T19:26:52.633Z,4.20
2018-09-08T19:29:26.107Z,4.77
2018-09-08T19:31:54.253Z,4.03
2018-09-08T19:34:22.397Z,5.07
2018-09-08T19:36:50.549Z,4.77
2018-09-08T19:39:18.714Z,6.25
2018-09-08T19:41:46.877Z,8.03
2018-09-08T19:44:15.036Z,4.83
2018-09-08T19:46:48.709Z,4.70
2018-09-08T19:49:16.825Z,5.33
2018-09-08T19:51:45.961Z,5.20
2018-09-08T19:54:14.088Z,5.27
2018-09-08T19:56:47.693Z,4.33
2018-09-08T19:59:15.816Z,4.60
2018-09-08T20:01:43.984Z,4.60
2018-09-08T20:04:12.155Z,4.80
2018-09-08T20:06:40.309Z,4.10
2018-09-08T20:09:08.466Z,4.03
2018-09-08T20:11:37.921Z,5.55
2018-09-08T20:14:06.228Z,5.65
2018-09-08T20:16:34.397Z,4.83
2018-09-08T20:19:02.525Z,4.78
2018-09-08T20:21:30.643Z,4.35
2018-09-08T20:23:58.741Z,5.64
2018-09-08T20:26:26.925Z,4.77
2018-09-08T20:28:55.110Z,5.07
2018-09-08T20:31:23.201Z,4.90
2018-09-08T20:33:51.375Z,4.53
2018-09-08T20:36:19.556Z,5.10
2018-09-08T20:38:47.705Z,7.17
2018-09-08T20:41:15.850Z,4.97
2018-09-08T20:43:44.034Z,5.40
2018-09-08T20:46:12.129Z,5.60
2018-09-08T20:48:40.261Z,5.93
2018-09-08T20:51:08.356Z,5.27
2018-09-08T20:53:36.504Z,5.37
2018-09-08T20:56:04.626Z,6.12
2018-09-08T20:58:32.867Z,6.00
2018-09-08T21:01:01.060Z,6.33
2018-09-08T21:03:29.225Z,5.83
2018-09-08T21:05:57.374Z,5.70
2018-09-08T21:08:25.525Z,6.27
2018-09-08T21:10:53.678Z,6.20
2018-09-08T21:13:21.837Z,7.17
2018-09-08T21:15:49.973Z,6.43
2018-09-08T21:18:18.092Z,6.20
2018-09-08T21:20:46.240Z,6.33
2018-09-08T21:23:14.422Z,6.13
2018-09-08T21:25:42.569Z,5.67
2018-09-08T21:28:10.716Z,6.67
2018-09-08T21:30:38.843Z,6.57
2018-09-08T21:33:07.017Z,7.10
2018-09-08T21:35:35.161Z,7.10
2018-09-08T21:38:03.308Z,6.63
2018-09-08T21:40:31.453Z,9.90
2018-09-08T21:42:59.613Z,7.27
2018-09-08T21:45:27.788Z,8.40
2018-09-08T21:47:56.022Z,10.33
2018-09-08T21:50:24.157Z,6.23
2018-09-08T21:52:52.298Z,6.07
2018-09-08T21:55:20.461Z,6.70
2018-09-08T21:57:48.629Z,6.57
2018-09-08T22:00:16.765Z,7.10
2018-09-08T22:02:44.927Z,6.63
2018-09-08T22:05:13.086Z,7.00
2018-09-08T22:07:41.657Z,7.62
2018-09-08T22:10:10.001Z,6.53
2018-09-08T22:12:38.097Z,7.03
2018-09-08T22:15:06.264Z,7.20
2018-09-08T22:17:34.393Z,7.17
2018-09-08T22:20:02.548Z,9.10
2018-09-08T22:22:30.683Z,10.15
2018-09-08T22:24:58.821Z,7.07
2018-09-08T22:27:26.992Z,7.57
2018-09-08T22:29:55.150Z,6.80
2018-09-08T22:32:23.309Z,6.93
2018-09-08T22:34:51.479Z,7.30
2018-09-08T22:37:20.116Z,7.33
2018-09-08T22:39:48.371Z,8.38
2018-09-08T22:42:16.513Z,7.70
2018-09-08T22:44:44.725Z,7.87
2018-09-08T22:47:12.861Z,8.37
2018-09-08T22:49:41.078Z,8.37
2018-09-08T22:52:09.203Z,7.50
2018-09-08T22:54:37.361Z,7.28
2018-09-08T22:57:05.608Z,8.03
2018-09-08T22:59:33.762Z,8.37
2018-09-08T23:02:01.913Z,8.20
2018-09-08T23:04:30.069Z,8.67
2018-09-08T23:06:58.249Z,9.03
2018-09-08T23:09:26.384Z,8.43
2018-09-08T23:11:54.505Z,9.70
2018-09-08T23:14:22.653Z,8.67
2018-09-08T23:16:50.761Z,8.70
2018-09-08T23:19:18.884Z,12.40
2018-09-08T23:21:47.027Z,8.27
2018-09-08T23:24:15.203Z,8.53
2018-09-08T23:26:43.314Z,9.40
2018-09-08T23:29:11.437Z,9.70
2018-09-08T23:31:39.596Z,8.67
2018-09-08T23:34:07.760Z,10.63
2018-09-08T23:36:35.888Z,9.03
2018-09-08T23:39:05.050Z,8.70
2018-09-08T23:41:33.201Z,9.60
2018-09-08T23:44:01.445Z,9.03
2018-09-08T23:46:30.108Z,9.75
2018-09-08T23:48:58.271Z,9.37
2018-09-08T23:51:26.407Z,10.60
2018-09-08T23:53:55.222Z,10.30
2018-09-08T23:56:23.404Z,9.60
2018-09-08T23:58:51.548Z,10.00
